Time;durP1;ratioP1;P1;durP2;ratioP2;P2;SDS_P1;SDS_P2;PMS_P1;PMS_P2;Temp;Humidity;BMP_temperature;BMP_pressure;BME280_temperature;BME280_humidity;BME280_pressure;Samples;Min_cycle;Max_cycle;Signal;HPM_P1;HPM_P2
2022/06/06 00:01:08;;;;;;;43.17;28.25;;;;;;;15.72;100.00;101276.59;5024039;28;20049;-47
2022/06/06 00:03:55;;;;;;;37.47;24.27;;;;;;;15.74;100.00;101268.88;5029439;28;20061;-47
2022/06/06 00:06:43;;;;;;;35.92;23.58;;;;;;;15.74;100.00;101257.91;5026771;28;20046;-45
2022/06/06 00:09:31;;;;;;;35.20;22.85;;;;;;;15.80;100.00;101257.81;5033471;28;20400;-48
2022/06/06 00:12:20;;;;;;;37.40;23.88;;;;;;;15.78;100.00;101252.66;5012035;28;20049;-48
2022/06/06 00:15:09;;;;;;;37.67;24.45;;;;;;;15.74;100.00;101255.16;5024149;28;20424;-46
2022/06/06 00:17:56;;;;;;;33.15;23.42;;;;;;;15.72;100.00;101254.63;5023243;28;20057;-46
2022/06/06 00:20:44;;;;;;;35.60;23.48;;;;;;;15.74;100.00;101257.09;5032537;28;20049;-47
2022/06/06 00:23:31;;;;;;;36.92;23.42;;;;;;;15.76;100.00;101254.88;5033287;28;20056;-46
2022/06/06 00:26:19;;;;;;;34.40;23.08;;;;;;;15.80;100.00;101250.41;5030750;28;20137;-44
2022/06/06 00:29:07;;;;;;;31.90;21.85;;;;;;;15.78;100.00;101252.66;5012498;28;20053;-45
2022/06/06 00:35:03;;;;;;;30.05;20.73;;;;;;;15.82;100.00;101241.88;5029567;28;20045;-48
2022/06/06 00:37:51;;;;;;;30.98;20.73;;;;;;;15.83;100.00;101243.53;5015120;28;20045;-47
2022/06/06 00:40:38;;;;;;;31.80;20.30;;;;;;;15.83;100.00;101238.03;5031120;28;20053;-47
2022/06/06 00:43:26;;;;;;;29.75;20.38;;;;;;;15.81;100.00;101241.06;5032895;28;20072;-44
2022/06/06 00:46:14;;;;;;;34.63;20.65;;;;;;;15.82;100.00;101239.13;5019108;28;20077;-46
2022/06/06 00:49:03;;;;;;;30.40;19.70;;;;;;;15.82;100.00;101239.13;5026662;28;20052;-48
2022/06/06 00:51:51;;;;;;;27.27;18.48;;;;;;;15.84;100.00;101239.66;5020926;28;20052;-48
2022/06/06 00:54:39;;;;;;;27.45;18.38;;;;;;;15.84;100.00;101239.66;5014478;28;20042;-47
2022/06/06 00:57:31;;;;;;;30.90;18.75;;;;;;;15.86;100.00;101242.94;5008381;28;20075;-49
2022/06/06 01:00:21;;;;;;;26.35;17.48;;;;;;;15.86;100.00;101241.00;5025122;28;20052;-49
2022/06/06 01:03:12;;;;;;;29.60;19.08;;;;;;;15.86;100.00;101237.44;5015747;28;20048;-49
2022/06/06 01:06:01;;;;;;;26.52;18.20;;;;;;;15.83;100.00;101238.84;5023055;28;20135;-48
2022/06/06 01:08:50;;;;;;;24.15;16.63;;;;;;;15.84;100.00;101234.16;5020564;28;20046;-48
2022/06/06 01:11:41;;;;;;;24.20;16.40;;;;;;;15.83;100.00;101235.28;5002202;28;20065;-47
2022/06/06 01:14:35;;;;;;;23.95;16.88;;;;;;;15.82;100.00;101239.94;5032411;28;20057;-47
2022/06/06 01:17:52;;;;;;;25.73;17.63;;;;;;;15.80;100.00;101233.09;5017819;28;20072;-49
2022/06/06 01:20:55;;;;;;;25.02;17.65;;;;;;;15.79;100.00;101232.28;5022341;28;20086;-47
2022/06/06 01:24:04;;;;;;;24.35;16.75;;;;;;;15.79;100.00;101242.47;5029164;28;20049;-46
2022/06/06 01:27:24;;;;;;;24.65;16.50;;;;;;;15.73;100.00;101237.03;5027338;28;20042;-47
2022/06/06 01:30:15;;;;;;;24.45;16.38;;;;;;;15.72;100.00;101238.13;5025212;28;20057;-47
2022/06/06 01:33:09;;;;;;;24.23;17.40;;;;;;;15.71;100.00;101246.69;5032477;28;20153;-47
2022/06/06 01:36:01;;;;;;;24.20;18.08;;;;;;;15.71;100.00;101242.00;5020223;28;20061;-48
2022/06/06 01:38:49;;;;;;;23.38;17.73;;;;;;;15.69;100.00;101244.19;5029712;28;20049;-46
2022/06/06 01:42:02;;;;;;;21.85;15.93;;;;;;;15.70;100.00;101248.59;5036629;28;20041;-48
2022/06/06 01:45:23;;;;;;;23.17;16.63;;;;;;;15.68;100.00;101242.56;5021978;28;20042;-47
2022/06/06 01:48:21;;;;;;;22.27;16.05;;;;;;;15.68;100.00;101245.31;5025455;28;20080;-45
2022/06/06 01:51:14;;;;;;;21.33;16.50;;;;;;;15.70;100.00;101243.09;5020132;28;20037;-46
2022/06/06 01:54:02;;;;;;;24.58;17.30;;;;;;;15.71;100.00;101244.75;5015980;28;20058;-47
2022/06/06 01:56:50;;;;;;;24.08;17.55;;;;;;;15.73;100.00;101238.97;5030831;28;20576;-47
2022/06/06 01:59:37;;;;;;;27.25;18.23;;;;;;;15.73;100.00;101234.28;5016463;28;20057;-47
2022/06/06 02:02:25;;;;;;;26.35;19.77;;;;;;;15.73;100.00;101234.28;5026433;28;20416;-47
2022/06/06 02:05:14;;;;;;;31.20;22.58;;;;;;;15.74;100.00;101235.91;5034795;28;20052;-46
2022/06/06 02:08:02;;;;;;;30.10;21.48;;;;;;;15.74;100.00;101226.84;5027003;28;20048;-46
2022/06/06 02:10:50;;;;;;;34.72;24.02;;;;;;;15.74;100.00;101221.38;5031625;28;20054;-44
2022/06/06 02:13:38;;;;;;;33.13;23.02;;;;;;;15.74;100.00;101219.44;5016584;28;20057;-47
2022/06/06 02:16:26;;;;;;;29.83;22.52;;;;;;;15.75;100.00;101212.84;5029650;28;20041;-47
2022/06/06 02:19:14;;;;;;;32.88;24.00;;;;;;;15.76;100.00;101211.72;5027322;28;20125;-47
2022/06/06 02:22:01;;;;;;;34.42;24.73;;;;;;;15.79;100.00;101215.00;5030380;28;20054;-47
2022/06/06 02:24:49;;;;;;;38.33;26.75;;;;;;;15.77;100.00;101210.59;5035779;28;20128;-48
2022/06/06 02:27:37;;;;;;;35.13;25.33;;;;;;;15.77;100.00;101204.28;5025687;28;20125;-48
2022/06/06 02:30:28;;;;;;;35.20;25.40;;;;;;;15.77;100.00;101205.09;5015705;28;20385;-47
2022/06/06 02:33:16;;;;;;;33.38;24.23;;;;;;;15.76;100.00;101205.41;5030827;28;20045;-48
2022/06/06 02:36:04;;;;;;;37.53;26.05;;;;;;;15.75;100.00;101201.00;5024907;28;20049;-47
2022/06/06 02:38:52;;;;;;;33.33;24.65;;;;;;;15.76;100.00;101205.41;5031237;28;20049;-47
2022/06/06 02:41:39;;;;;;;33.50;24.10;;;;;;;15.76;100.00;101200.72;5024544;28;20057;-46
2022/06/06 02:44:27;;;;;;;37.28;25.20;;;;;;;15.77;100.00;101193.28;5032495;28;20514;-52
2022/06/06 02:47:15;;;;;;;34.35;24.45;;;;;;;15.75;100.00;101199.09;5035233;28;20052;-48
2022/06/06 02:50:05;;;;;;;33.70;23.30;;;;;;;15.75;100.00;101199.09;5027495;28;20042;-51
2022/06/06 02:52:53;;;;;;;31.65;23.70;;;;;;;15.74;100.00;101193.91;5034179;28;20384;-49
2022/06/06 02:55:41;;;;;;;36.58;24.80;;;;;;;15.75;100.00;101190.88;5033042;28;20357;-49
2022/06/06 02:58:29;;;;;;;35.65;25.02;;;;;;;15.75;100.00;101192.78;5034845;28;20042;-48
2022/06/06 03:01:16;;;;;;;34.40;24.38;;;;;;;15.74;100.00;101189.22;5031654;28;20056;-46
2022/06/06 03:04:04;;;;;;;34.53;26.05;;;;;;;15.72;100.00;101188.69;5027586;28;20088;-44
2022/06/06 03:07:16;;;;;;;31.10;23.23;;;;;;;15.70;100.00;101193.66;5022983;28;20074;-46
2022/06/06 03:10:18;;;;;;;34.88;25.60;;;;;;;15.68;100.00;101193.13;5016651;28;20048;-44
2022/06/06 03:13:18;;;;;;;32.88;24.50;;;;;;;15.67;100.00;101196.16;5032263;28;20045;-44
2022/06/06 03:23:02;;;;;;;39.67;27.30;;;;;;;15.62;100.00;101199.78;5022862;28;20053;-50
2022/06/06 03:25:52;;;;;;;38.22;28.23;;;;;;;15.61;100.00;101206.38;5034223;28;20046;-47
2022/06/06 03:29:17;;;;;;;38.67;27.48;;;;;;;15.59;100.00;101194.88;5027758;28;20436;-52
2022/06/06 03:32:20;;;;;;;35.97;25.90;;;;;;;15.58;100.00;101201.44;5025155;28;20064;-48
2022/06/06 03:35:40;;;;;;;39.45;27.30;;;;;;;15.60;100.00;101204.72;5033348;28;20552;-48
2022/06/06 03:38:36;;;;;;;36.63;26.27;;;;;;;15.57;100.00;101202.56;5025580;28;20056;-50
2022/06/06 03:41:35;;;;;;;35.80;24.92;;;;;;;15.57;100.00;101208.06;5028051;28;20073;-50
2022/06/06 03:44:50;;;;;;;37.38;26.33;;;;;;;15.56;100.00;101206.41;5031430;28;20045;-49
2022/06/06 03:47:42;;;;;;;37.88;25.05;;;;;;;15.58;100.00;101211.63;5027657;28;20038;-49
2022/06/06 03:50:44;;;;;;;38.70;27.10;;;;;;;15.57;100.00;101216.31;5033780;28;20041;-49
2022/06/06 03:53:37;;;;;;;34.83;25.02;;;;;;;15.57;100.00;101215.50;5031988;28;20412;-48
2022/06/06 03:56:20;;;;;;;35.65;25.58;;;;;;;15.56;100.00;101217.41;5034018;28;20381;-48
2022/06/06 03:59:08;;;;;;;34.42;24.42;;;;;;;15.52;100.00;101210.88;5017514;28;20050;-48
2022/06/06 04:02:02;;;;;;;30.77;21.67;;;;;;;15.53;100.00;101212.50;5030700;28;20065;-46
2022/06/06 04:04:51;;;;;;;29.40;20.42;;;;;;;15.53;100.00;101212.50;5032377;28;20049;-47
2022/06/06 04:07:39;;;;;;;29.85;20.02;;;;;;;15.53;100.00;101215.25;5022045;28;20046;-47
2022/06/06 04:10:49;;;;;;;33.63;22.25;;;;;;;15.53;100.00;101212.50;5022247;28;20473;-45
2022/06/06 04:14:01;;;;;;;27.23;19.95;;;;;;;15.55;100.00;101219.34;5028833;28;20061;-49
2022/06/06 04:17:10;;;;;;;24.27;15.32;;;;;;;15.57;100.00;101213.56;5026165;28;20104;-43
2022/06/06 04:20:06;;;;;;;27.75;20.95;;;;;;;15.52;100.00;101221.88;5031484;28;20042;-47
2022/06/06 04:23:40;;;;;;;31.48;19.48;;;;;;;15.50;100.00;101226.81;5031877;28;20041;-48
2022/06/06 04:26:32;;;;;;;32.17;21.20;;;;;;;15.49;100.00;101227.91;5024645;28;20060;-48
2022/06/06 04:29:42;;;;;;;28.50;19.60;;;;;;;15.47;100.00;101235.66;5033089;28;20053;-48
2022/06/06 04:32:16;;;;;;;26.58;18.85;;;;;;;15.45;100.00;101230.44;5025207;28;20091;-46
2022/06/06 04:35:09;;;;;;;27.27;18.83;;;;;;;15.46;100.00;101236.75;5028505;28;20783;-48
2022/06/06 04:38:12;;;;;;;21.33;15.38;;;;;;;15.42;100.00;101243.94;5020596;28;20092;-47
2022/06/06 04:41:08;;;;;;;23.35;17.05;;;;;;;15.39;100.00;101250.00;5032672;28;20049;-50
2022/06/06 04:44:10;;;;;;;23.30;16.42;;;;;;;15.37;100.00;101246.72;5022399;28;20057;-48
2022/06/06 04:47:07;;;;;;;22.17;14.27;;;;;;;15.38;100.00;101249.19;5022886;28;20053;-46
2022/06/06 04:49:55;;;;;;;23.60;15.95;;;;;;;15.32;100.00;101251.16;5023544;28;20046;-51
2022/06/06 04:52:52;;;;;;;21.67;14.77;;;;;;;15.37;100.00;101257.69;5028086;28;20052;-51
2022/06/06 04:55:41;;;;;;;24.55;16.65;;;;;;;15.42;100.00;101257.69;5026061;28;20439;-51
2022/06/06 04:58:32;;;;;;;21.80;15.45;;;;;;;15.43;100.00;101257.38;5031075;28;20061;-47
2022/06/06 05:01:19;;;;;;;12.93;8.85;;;;;;;15.46;100.00;101255.97;5027189;28;20045;-48
2022/06/06 05:04:07;;;;;;;21.58;14.82;;;;;;;15.43;100.00;101256.56;5024914;28;20057;-49
2022/06/06 05:07:16;;;;;;;21.75;14.82;;;;;;;15.43;100.00;101251.06;5018993;28;20064;-44
2022/06/06 05:10:33;;;;;;;23.52;15.50;;;;;;;15.44;98.68;101255.44;5021104;28;20049;-47
2022/06/06 05:13:32;;;;;;;21.85;15.52;;;;;;;15.33;98.34;101258.28;5014544;28;21662;-48
2022/06/06 05:16:22;;;;;;;20.50;13.70;;;;;;;15.32;98.42;101259.41;5024188;28;20049;-48
2022/06/06 05:19:30;;;;;;;22.48;14.52;;;;;;;15.31;97.38;101256.94;5021564;28;20052;-47
2022/06/06 05:22:24;;;;;;;22.35;16.48;;;;;;;15.31;98.14;101256.94;5018533;28;20053;-48
2022/06/06 05:25:15;;;;;;;20.35;15.25;;;;;;;15.33;98.36;101258.28;5015954;28;20042;-47
2022/06/06 05:28:24;;;;;;;20.60;15.13;;;;;;;15.34;97.81;101259.94;5019790;28;20099;-46
2022/06/06 05:31:42;;;;;;;25.80;16.73;;;;;;;15.38;97.19;101259.34;5025667;28;20117;-46
2022/06/06 05:34:40;;;;;;;21.63;14.63;;;;;;;15.33;96.75;101266.53;5021224;28;20444;-47
2022/06/06 05:37:48;;;;;;;20.25;15.27;;;;;;;15.31;96.71;101266.00;5018359;28;20469;-44
2022/06/06 05:40:39;;;;;;;16.50;12.55;;;;;;;15.31;97.08;101262.44;5022330;28;20052;-47
2022/06/06 05:43:33;;;;;;;21.92;14.93;;;;;;;15.36;96.87;101272.56;5018595;28;20056;-47
2022/06/06 05:46:42;;;;;;;18.92;14.30;;;;;;;15.37;95.87;101274.19;5019927;28;20127;-47
2022/06/06 05:49:50;;;;;;;22.35;14.15;;;;;;;15.37;95.21;101276.91;5018517;28;20041;-47
2022/06/06 05:52:45;;;;;;;18.73;13.77;;;;;;;15.39;94.84;101283.75;5025587;28;20056;-48
2022/06/06 05:56:11;;;;;;;17.02;13.00;;;;;;;15.35;94.72;101282.72;5020837;28;20425;-49
2022/06/06 05:59:21;;;;;;;18.65;12.70;;;;;;;15.38;94.58;101282.13;4334527;28;10000903;-48
2022/06/06 06:02:28;;;;;;;17.92;14.00;;;;;;;15.37;94.79;101279.66;5009828;28;20045;-48
2022/06/06 06:05:47;;;;;;;18.45;12.60;;;;;;;15.35;94.69;101282.72;5029965;28;20064;-48
2022/06/06 06:08:42;;;;;;;16.55;12.25;;;;;;;15.49;95.34;101282.84;5023297;28;20075;-50
2022/06/06 06:11:45;;;;;;;17.13;11.97;;;;;;;15.52;94.22;101293.28;5029516;28;20499;-47
2022/06/06 06:14:56;;;;;;;15.43;9.90;;;;;;;15.44;92.19;101294.72;5009382;28;20292;-47
2022/06/06 06:17:45;;;;;;;15.43;9.90;;;;;;;15.43;93.06;101286.75;5032153;28;20049;-47
2022/06/06 06:20:41;;;;;;;16.88;10.38;;;;;;;15.49;92.00;101282.84;5025217;28;20397;-48
2022/06/06 06:23:32;;;;;;;15.88;11.27;;;;;;;15.44;91.51;101288.38;5024376;28;20041;-48
2022/06/06 06:26:20;;;;;;;14.63;10.40;;;;;;;15.40;91.21;101290.09;5016975;28;20053;-46
2022/06/06 06:29:09;;;;;;;15.55;9.13;;;;;;;15.45;91.12;101295.53;5022296;28;20057;-48
2022/06/06 06:32:11;;;;;;;13.07;7.53;;;;;;;15.49;92.09;101285.59;5014851;28;20049;-45
2022/06/06 06:35:16;;;;;;;11.70;7.60;;;;;;;15.48;89.02;101303.19;5025330;28;20046;-48
2022/06/06 06:38:04;;;;;;;13.75;8.73;;;;;;;15.53;87.54;101316.88;5026558;28;20076;-48
2022/06/06 06:41:14;;;;;;;12.95;7.47;;;;;;;15.60;86.57;101309.09;5029302;28;20411;-48
2022/06/06 06:44:23;;;;;;;11.70;7.72;;;;;;;15.59;86.21;101310.22;5011177;28;20143;-47
2022/06/06 06:47:19;;;;;;;12.75;7.43;;;;;;;15.57;88.02;101312.44;5020162;28;20050;-48
2022/06/06 06:50:25;;;;;;;12.68;8.50;;;;;;;15.79;91.00;101313.91;5032097;28;20053;-48
2022/06/06 06:53:38;;;;;;;14.30;8.60;;;;;;;16.16;88.44;101329.69;5022277;28;20050;-48
2022/06/06 06:56:44;;;;;;;11.43;7.13;;;;;;;15.86;84.55;101330.88;5013797;28;20042;-48
2022/06/06 06:59:47;;;;;;;11.65;6.97;;;;;;;15.62;84.00;101331.63;5023812;28;20045;-46
2022/06/06 07:09:52;;;;;;;15.52;7.15;;;;;;;15.53;84.17;101325.91;5020507;28;20045;-48
2022/06/06 07:12:52;;;;;;;11.90;6.88;;;;;;;15.54;84.60;101333.06;5024885;28;20049;-49
2022/06/06 07:15:52;;;;;;;11.00;6.50;;;;;;;15.75;86.25;101330.97;5020699;28;20081;-48
2022/06/06 07:18:40;;;;;;;11.57;6.07;;;;;;;15.75;83.73;101327.41;5022637;28;20381;-47
2022/06/06 07:21:32;;;;;;;11.15;5.60;;;;;;;15.91;89.30;101328.06;5029804;28;20467;-48
2022/06/06 07:24:23;;;;;;;8.68;4.95;;;;;;;15.75;81.87;101330.97;5017755;28;20613;-48
2022/06/06 07:26:51;;;;;;;8.52;4.80;;;;;;;15.72;82.08;101330.72;5018736;28;20050;-49
2022/06/06 07:29:39;;;;;;;7.75;4.40;;;;;;;15.76;84.13;101324.38;5010476;28;20057;-47
2022/06/06 07:32:44;;;;;;;8.43;3.92;;;;;;;15.89;84.78;101324.78;5010546;28;20058;-49
2022/06/06 07:35:40;;;;;;;6.90;3.65;;;;;;;15.91;81.43;101328.88;4994747;28;20468;-48
2022/06/06 07:38:52;;;;;;;8.77;3.85;;;;;;;16.10;79.64;101328.13;5026483;28;20057;-49
2022/06/06 07:41:59;;;;;;;8.10;3.17;;;;;;;16.06;81.59;101329.81;5017331;28;20161;-49
2022/06/06 07:45:02;;;;;;;7.45;3.75;;;;;;;16.32;83.73;101338.59;5010257;28;20045;-48
2022/06/06 07:48:05;;;;;;;8.10;3.40;;;;;;;16.34;82.90;101337.19;5009401;28;20054;-47
2022/06/06 07:51:18;;;;;;;7.38;3.53;;;;;;;16.72;83.89;101333.66;5011621;28;20092;-49
2022/06/06 07:54:33;;;;;;;3.38;2.40;;;;;;;16.47;76.05;101340.31;5009790;28;20462;-51
2022/06/06 07:57:42;;;;;;;5.85;2.67;;;;;;;16.27;77.07;101341.41;5013223;28;20045;-50
2022/06/06 08:00:31;;;;;;;6.60;2.95;;;;;;;16.26;78.26;101354.34;5012606;28;20064;-51
2022/06/06 08:03:37;;;;;;;5.90;2.80;;;;;;;16.26;76.65;101345.25;5012310;28;20488;-50
2022/06/06 08:06:39;;;;;;;4.63;2.45;;;;;;;16.02;74.87;101348.00;5015784;28;20042;-50
2022/06/06 08:09:55;;;;;;;5.32;2.50;;;;;;;16.03;76.05;101347.72;5008282;28;20046;-48
2022/06/06 08:13:09;;;;;;;5.60;2.47;;;;;;;16.02;77.74;101348.00;5013600;28;20046;-50
2022/06/06 08:16:29;;;;;;;3.97;2.33;;;;;;;16.11;75.96;101344.31;5017297;28;20054;-53
2022/06/06 08:19:42;;;;;;;6.68;3.00;;;;;;;16.25;78.16;101338.13;5017598;28;20062;-50
2022/06/06 08:22:24;;;;;;;11.38;3.50;;;;;;;16.71;76.07;101348.53;5021987;28;20045;-50
2022/06/06 08:25:15;;;;;;;13.40;4.20;;;;;;;16.58;72.49;101348.13;5017040;28;20045;-54
2022/06/06 08:28:04;;;;;;;6.55;3.03;;;;;;;16.40;72.07;101340.66;5010459;28;20042;-53
2022/06/06 08:30:52;;;;;;;6.00;2.50;;;;;;;16.22;71.36;101344.22;5012186;28;20049;-46
2022/06/06 08:33:40;;;;;;;8.68;3.53;;;;;;;16.20;72.48;101336.25;5015222;28;20374;-50
2022/06/06 08:36:40;;;;;;;6.10;2.50;;;;;;;16.00;71.27;101336.50;5015862;28;20069;-48
2022/06/06 08:39:46;;;;;;;4.53;1.98;;;;;;;16.00;73.44;101328.25;5023444;28;20046;-50
2022/06/06 08:42:40;;;;;;;8.00;3.05;;;;;;;16.05;75.07;101333.69;5019611;28;20041;-50
2022/06/06 08:45:50;;;;;;;7.90;2.80;;;;;;;16.00;75.03;101331.00;5030742;28;20057;-48
2022/06/06 08:48:53;;;;;;;6.13;3.10;;;;;;;16.00;75.19;101320.00;5025526;28;20057;-53
2022/06/06 08:51:51;;;;;;;8.35;3.22;;;;;;;16.06;75.99;101322.38;5020879;28;20400;-48
2022/06/06 08:54:55;;;;;;;8.32;3.08;;;;;;;16.21;73.61;101312.31;5015852;28;20053;-47
2022/06/06 08:58:22;;;;;;;19.25;5.60;;;;;;;16.69;74.96;101324.06;5025144;28;20042;-49
2022/06/06 09:01:46;;;;;;;10.13;3.88;;;;;;;16.71;73.85;101329.25;5032030;28;20128;-50
2022/06/06 09:05:07;;;;;;;4.68;2.03;;;;;;;16.61;70.96;101320.03;5025833;28;20054;-50
2022/06/06 09:08:07;;;;;;;21.85;7.18;;;;;;;16.73;75.75;101316.03;5023009;28;20515;-48
2022/06/06 09:11:16;;;;;;;16.05;4.28;;;;;;;16.83;77.82;101311.22;5027464;28;20050;-48
2022/06/06 09:14:04;;;;;;;11.07;3.42;;;;;;;16.90;74.33;101310.84;5031295;28;20046;-48
2022/06/06 09:17:03;;;;;;;10.35;3.65;;;;;;;16.77;72.73;101320.63;5023204;28;20476;-48
2022/06/06 09:20:05;;;;;;;12.93;5.15;;;;;;;16.74;75.59;101323.16;5014717;28;20535;-49
2022/06/06 09:23:22;;;;;;;5.93;2.38;;;;;;;16.68;72.76;101324.34;5028885;28;20488;-51
2022/06/06 09:26:45;;;;;;;5.30;2.40;;;;;;;16.54;73.23;101321.50;5027282;28;20049;-47
2022/06/06 09:29:41;;;;;;;5.93;2.60;;;;;;;16.53;73.47;101317.94;5020182;28;20493;-47
2022/06/06 09:32:41;;;;;;;8.98;3.15;;;;;;;16.50;73.77;101315.81;5021944;28;20496;-47
2022/06/06 09:35:42;;;;;;;10.40;4.30;;;;;;;16.60;76.34;101301.91;5028479;28;20049;-50
2022/06/06 09:38:45;;;;;;;12.20;4.90;;;;;;;16.80;73.91;101300.00;5005303;28;20050;-49
2022/06/06 09:41:45;;;;;;;7.85;3.95;;;;;;;16.69;71.51;101299.31;5019307;28;20046;-50
2022/06/06 09:44:58;;;;;;;8.82;3.17;;;;;;;16.66;71.87;101293.56;5010790;28;20049;-49
2022/06/06 09:48:08;;;;;;;9.73;4.10;;;;;;;16.82;72.55;101281.25;5028999;28;20049;-52
2022/06/06 09:51:05;;;;;;;15.85;4.85;;;;;;;17.17;74.46;101279.88;5025843;28;20064;-49
2022/06/06 10:01:19;;;;;;;9.70;3.90;;;;;;;17.33;71.23;101290.59;5035238;28;20054;-50
2022/06/06 10:04:30;;;;;;;9.15;3.20;;;;;;;17.43;69.63;101285.72;5025395;28;20509;-46
2022/06/06 10:07:27;;;;;;;9.38;3.60;;;;;;;17.58;69.42;101289.31;5033354;28;20403;-49
2022/06/06 10:10:36;;;;;;;7.68;2.60;;;;;;;17.34;67.78;101281.22;5024566;28;20045;-49
2022/06/06 10:13:27;;;;;;;7.57;3.40;;;;;;;17.27;71.40;101269.75;5031241;28;20049;-50
2022/06/06 10:16:50;;;;;;;7.97;2.83;;;;;;;17.30;70.41;101258.97;5027822;28;20050;-47
2022/06/06 10:19:54;;;;;;;9.18;3.65;;;;;;;17.46;69.67;101271.34;5027461;28;20057;-48
2022/06/06 10:23:23;;;;;;;7.35;3.22;;;;;;;17.30;68.22;101263.69;5030912;28;20053;-51
2022/06/06 10:26:32;;;;;;;5.93;2.60;;;;;;;17.20;69.55;101264.66;5027734;28;20057;-47
2022/06/06 10:32:52;;;;;;;7.07;2.22;;;;;;;17.24;66.93;101255.50;5025914;28;20045;-47
2022/06/06 10:35:57;;;;;;;4.90;1.95;;;;;;;17.33;66.91;101252.84;5029862;28;20053;-47
2022/06/06 10:39:17;;;;;;;6.88;2.70;;;;;;;17.49;68.02;101255.34;5020203;28;20041;-47
2022/06/06 10:42:32;;;;;;;9.10;3.30;;;;;;;17.71;67.69;101252.69;5012269;28;20049;-47
2022/06/06 10:45:24;;;;;;;7.13;3.08;;;;;;;17.87;70.52;101251.31;5033059;28;20433;-47
2022/06/06 10:48:47;;;;;;;6.40;2.78;;;;;;;17.82;67.93;101262.44;5022549;28;20049;-51
2022/06/06 10:52:07;;;;;;;5.73;2.20;;;;;;;17.69;66.56;101277.00;4322210;28;10000673;-48
2022/06/06 10:55:15;;;;;;;5.43;1.90;;;;;;;17.67;66.58;101262.69;5013658;28;20046;-48
2022/06/06 10:58:47;;;;;;;4.93;1.92;;;;;;;17.74;67.12;101256.78;5027284;28;20046;-50
2022/06/06 11:01:52;;;;;;;4.50;1.85;;;;;;;17.93;65.88;101259.47;5018486;28;20049;-49
2022/06/06 11:05:13;;;;;;;6.00;2.22;;;;;;;18.14;64.57;101259.88;5029718;28;20060;-47
2022/06/06 11:08:30;;;;;;;5.65;2.30;;;;;;;18.16;63.37;101247.41;5016434;28;20044;-48
2022/06/06 11:11:52;;;;;;;3.78;1.90;;;;;;;18.16;62.78;101244.66;5020925;28;20512;-49
2022/06/06 11:14:41;;;;;;;3.67;1.88;;;;;;;18.14;62.16;101252.41;5008286;28;20053;-50
2022/06/06 11:18:11;;;;;;;4.05;1.75;;;;;;;18.13;61.82;101245.25;5030064;28;20045;-49
2022/06/06 11:21:40;;;;;;;6.57;2.60;;;;;;;18.29;65.95;101241.03;5016618;28;20057;-47
2022/06/06 11:24:40;;;;;;;4.75;2.10;;;;;;;18.52;64.75;101238.34;5020755;28;20053;-51
2022/06/06 11:27:42;;;;;;;3.70;1.65;;;;;;;18.37;62.48;101222.09;5020646;28;20042;-52
2022/06/06 11:30:55;;;;;;;3.25;1.60;;;;;;;18.48;64.43;101231.78;5018348;28;20045;-49
2022/06/06 11:33:51;;;;;;;4.70;1.77;;;;;;;18.57;61.04;101220.81;5018255;28;20104;-49
2022/06/06 11:37:04;;;;;;;4.32;2.10;;;;;;;18.49;63.96;101203.06;5019013;28;20497;-49
2022/06/06 11:40:07;;;;;;;2.28;1.75;;;;;;;18.52;64.29;101216.25;5041028;28;20055;-49
2022/06/06 11:43:20;;;;;;;5.70;1.60;;;;;;;18.40;62.03;101215.97;5029348;28;20048;-48
2022/06/06 11:46:35;;;;;;;5.32;1.90;;;;;;;18.26;64.27;101241.66;5030349;28;20057;-49
2022/06/06 11:49:38;;;;;;;3.70;1.95;;;;;;;18.57;59.55;101216.13;5020360;28;20053;-50
2022/06/06 11:52:53;;;;;;;4.78;1.88;;;;;;;18.28;60.25;101220.09;5026371;28;20132;-49
2022/06/06 11:55:47;;;;;;;;;;;;;;;18.15;62.53;101218.19;5013544;28;20042;-47
2022/06/06 11:58:50;;;;;;;3.80;1.73;;;;;;;18.30;62.09;101206.81;5018429;28;20004;-49
2022/06/06 12:02:19;;;;;;;4.93;1.80;;;;;;;18.29;64.63;101216.19;5017356;28;20052;-50
2022/06/06 12:05:40;;;;;;;5.43;1.88;;;;;;;18.40;60.36;101219.56;5012628;28;20050;-49
2022/06/06 12:08:40;;;;;;;3.85;1.42;;;;;;;18.17;61.52;101240.75;5013626;28;20060;-51
2022/06/06 12:11:49;;;;;;;4.10;1.75;;;;;;;17.98;64.59;101245.59;5017578;28;20077;-50
2022/06/06 12:15:07;;;;;;;5.22;2.03;;;;;;;17.80;62.39;101261.09;5025519;28;20049;-49
2022/06/06 12:18:42;;;;;;;4.47;2.00;;;;;;;17.67;63.61;101255.25;5026647;28;20065;-50
2022/06/06 12:22:10;;;;;;;3.90;1.70;;;;;;;17.63;63.83;101253.41;5018037;28;20136;-50
2022/06/06 12:25:30;;;;;;;6.18;2.10;;;;;;;17.55;62.35;101257.69;5023430;28;20115;-53
2022/06/06 12:28:42;;;;;;;4.75;1.50;;;;;;;17.51;62.55;101239.31;5025722;28;20144;-50
2022/06/06 12:31:58;;;;;;;3.10;1.38;;;;;;;17.49;62.83;101249.84;5028453;28;20053;-47
2022/06/06 12:35:04;;;;;;;5.22;1.70;;;;;;;17.45;63.59;101258.69;5024906;28;20046;-51
2022/06/06 12:38:04;;;;;;;5.32;2.10;;;;;;;17.57;66.38;101265.66;5012302;28;20431;-51
2022/06/06 12:41:29;;;;;;;7.35;1.73;;;;;;;17.53;66.13;101251.66;5014781;28;20132;-51
2022/06/06 12:44:28;;;;;;;5.32;2.20;;;;;;;17.48;67.71;101249.00;5021671;28;20054;-49
2022/06/06 12:47:46;;;;;;;4.70;1.80;;;;;;;17.39;68.77;101248.06;5022232;28;20125;-50
2022/06/06 12:50:52;;;;;;;4.38;1.92;;;;;;;17.33;69.49;101246.53;5012581;28;20054;-49
2022/06/06 12:53:54;;;;;;;4.07;1.85;;;;;;;17.28;69.19;101239.19;5027281;28;20049;-49
2022/06/06 12:57:11;;;;;;;1.85;1.63;;;;;;;17.26;68.73;101233.16;5028687;28;20033;-50
2022/06/06 13:00:10;;;;;;;4.72;1.95;;;;;;;17.23;69.11;101242.84;5010038;28;20065;-49
2022/06/06 13:03:00;;;;;;;4.88;1.92;;;;;;;17.21;70.43;101238.75;5010501;28;20404;-49
2022/06/06 13:06:05;;;;;;;3.95;1.48;;;;;;;17.21;70.83;101242.31;5029538;28;20053;-46
2022/06/06 13:09:23;;;;;;;5.90;1.90;;;;;;;17.24;72.98;101240.91;5018523;28;20057;-49
2022/06/06 13:12:30;;;;;;;4.93;2.08;;;;;;;17.23;74.55;101242.03;5021339;28;20061;-54
2022/06/06 13:15:21;;;;;;;5.75;2.30;;;;;;;17.21;75.12;101250.59;5014552;28;20066;-54
2022/06/06 13:18:39;;;;;;;5.15;2.40;;;;;;;17.19;76.35;101229.97;5026341;28;20052;-53
2022/06/06 13:22:00;;;;;;;3.90;1.80;;;;;;;17.17;74.36;101226.69;5017866;28;20046;-47
2022/06/06 13:25:12;;;;;;;7.03;2.33;;;;;;;17.19;75.51;101222.53;5033445;28;20058;-50
2022/06/06 13:28:01;;;;;;;5.63;2.10;;;;;;;17.23;75.48;101220.00;5026208;28;20064;-50
2022/06/06 13:30:48;;;;;;;7.72;2.55;;;;;;;17.21;74.54;101220.28;5025712;28;20069;-49
2022/06/06 13:34:14;;;;;;;7.40;2.40;;;;;;;17.24;73.16;101246.41;5031974;28;20129;-57
2022/06/06 13:37:14;;;;;;;3.77;1.90;;;;;;;17.34;73.04;101249.00;5017517;28;20452;-51
2022/06/06 13:40:21;;;;;;;4.18;1.85;;;;;;;17.32;75.34;101250.38;5026162;28;20058;-50
2022/06/06 13:43:27;;;;;;;6.85;1.73;;;;;;;17.20;77.49;101245.41;5019360;28;20054;-49
2022/06/06 13:46:33;;;;;;;7.30;2.28;;;;;;;17.04;78.66;101248.41;5018510;28;20176;-48
2022/06/06 13:49:24;;;;;;;3.60;1.80;;;;;;;17.03;78.31;101243.22;5030372;28;20761;-49
2022/06/06 13:52:48;;;;;;;7.70;2.28;;;;;;;17.04;79.45;101245.63;5024395;28;20057;-50
2022/06/06 13:55:39;;;;;;;10.68;2.20;;;;;;;17.14;78.23;101249.34;5026104;28;20488;-48
2022/06/06 13:58:53;;;;;;;4.72;2.10;;;;;;;17.19;78.58;101244.56;5023674;28;20848;-48
2022/06/06 14:01:47;;;;;;;5.03;2.25;;;;;;;17.26;77.76;101235.91;5032363;28;20094;-48
2022/06/06 14:04:53;;;;;;;5.22;2.03;;;;;;;17.31;76.77;101248.78;5025633;28;20050;-49
2022/06/06 14:08:05;;;;;;;4.75;2.15;;;;;;;17.30;77.02;101253.47;5018243;28;20081;-47
2022/06/06 14:10:53;;;;;;;5.05;2.17;;;;;;;17.39;76.52;101250.81;5029110;28;20041;-48
2022/06/06 14:13:54;;;;;;;6.85;2.05;;;;;;;17.27;76.65;101245.81;5032325;28;20427;-47
2022/06/06 14:16:47;;;;;;;5.43;2.20;;;;;;;17.30;76.54;101253.47;5023529;28;20045;-47